createdAt,value
2023-01-09T00:01:20.901Z,4.76
2023-01-09T00:04:08.136Z,4.73
2023-01-09T00:06:55.936Z,4.76
2023-01-09T00:09:42.843Z,4.72
2023-01-09T00:12:29.640Z,4.71
2023-01-09T00:15:16.549Z,4.68
2023-01-09T00:18:03.436Z,4.69
2023-01-09T00:20:50.703Z,4.70
2023-01-09T00:23:37.564Z,4.76
2023-01-09T00:26:24.386Z,4.74
2023-01-09T00:29:11.816Z,4.73
2023-01-09T00:31:58.635Z,4.74
2023-01-09T00:34:45.428Z,4.74
2023-01-09T00:37:32.207Z,4.73
2023-01-09T00:40:19.353Z,4.72
2023-01-09T00:43:06.127Z,4.73
2023-01-09T00:45:52.983Z,4.71
2023-01-09T00:48:42.364Z,4.71
2023-01-09T00:51:29.196Z,4.73
2023-01-09T00:54:17.781Z,4.71
2023-01-09T00:57:04.646Z,4.73
2023-01-09T00:59:54.208Z,4.72
2023-01-09T01:02:41.182Z,4.73
2023-01-09T01:05:46.653Z,4.72
2023-01-09T01:08:36.176Z,4.68
2023-01-09T01:11:23.506Z,4.69
2023-01-09T01:14:10.349Z,4.64
2023-01-09T01:16:57.154Z,4.72
2023-01-09T01:19:43.940Z,4.68
2023-01-09T01:22:30.744Z,4.66
2023-01-09T01:25:18.029Z,4.70
2023-01-09T01:28:06.216Z,4.71
2023-01-09T01:30:53.067Z,4.70
2023-01-09T01:33:39.984Z,4.72
2023-01-09T01:36:26.799Z,4.70
2023-01-09T01:39:13.571Z,4.71
2023-01-09T01:42:00.559Z,4.72
2023-01-09T01:45:05.011Z,4.72
2023-01-09T01:48:04.215Z,4.71
2023-01-09T01:50:55.625Z,4.69
2023-01-09T01:53:53.785Z,4.68
2023-01-09T01:56:44.365Z,4.65
2023-01-09T01:59:38.940Z,4.65
2023-01-09T02:02:28.839Z,4.66
2023-01-09T02:05:15.797Z,4.66
2023-01-09T02:08:02.668Z,4.66
2023-01-09T02:10:49.628Z,4.65
2023-01-09T02:13:38.761Z,4.65
2023-01-09T02:16:48.009Z,4.69
2023-01-09T02:19:50.073Z,4.68
2023-01-09T02:22:43.746Z,4.66
2023-01-09T02:26:07.599Z,4.66
2023-01-09T02:29:28.859Z,4.67
2023-01-09T02:32:18.798Z,4.67
2023-01-09T02:35:30.222Z,4.59
2023-01-09T02:38:34.849Z,4.65
2023-01-09T02:41:26.882Z,4.64
2023-01-09T02:44:32.557Z,4.64
2023-01-09T02:47:19.979Z,4.63
2023-01-09T02:50:11.378Z,4.64
2023-01-09T02:53:19.135Z,4.64
2023-01-09T02:56:31.763Z,4.63
2023-01-09T02:59:25.384Z,4.63
2023-01-09T03:02:34.466Z,4.62
2023-01-09T03:05:22.873Z,4.61
2023-01-09T03:08:19.459Z,4.59
2023-01-09T03:11:11.891Z,4.58
2023-01-09T03:14:05.328Z,4.52
2023-01-09T03:17:03.091Z,4.62
2023-01-09T03:19:53.056Z,4.58
2023-01-09T03:22:45.609Z,4.59
2023-01-09T03:25:32.779Z,4.55
2023-01-09T03:28:28.215Z,4.64
2023-01-09T03:31:17.895Z,4.62
2023-01-09T03:34:04.881Z,4.61
2023-01-09T03:36:51.711Z,4.64
2023-01-09T03:39:38.572Z,4.63
2023-01-09T03:42:25.340Z,4.62
2023-01-09T03:45:12.183Z,4.64
2023-01-09T03:47:59.420Z,4.65
2023-01-09T03:50:49.226Z,4.64
2023-01-09T03:53:35.978Z,4.63
2023-01-09T03:56:22.994Z,4.62
2023-01-09T03:59:09.882Z,4.62
2023-01-09T04:01:56.999Z,4.53
2023-01-09T04:04:43.910Z,4.54
2023-01-09T04:07:30.789Z,4.55
2023-01-09T04:10:17.668Z,4.51
2023-01-09T04:13:04.496Z,4.55
2023-01-09T04:15:51.325Z,4.58
2023-01-09T04:18:38.123Z,4.56
2023-01-09T04:21:24.998Z,4.61
2023-01-09T04:24:11.915Z,4.60
2023-01-09T04:27:00.779Z,4.61
2023-01-09T04:29:47.768Z,4.63
2023-01-09T04:32:34.577Z,4.61
2023-01-09T04:35:21.637Z,4.59
2023-01-09T04:38:08.443Z,4.58
2023-01-09T04:40:55.227Z,4.57
2023-01-09T04:43:42.219Z,4.56
2023-01-09T04:46:29.063Z,4.53
2023-01-09T04:49:16.075Z,4.56
2023-01-09T04:52:02.893Z,4.55
2023-01-09T04:54:49.922Z,4.53
2023-01-09T04:57:37.352Z,4.53
2023-01-09T05:00:24.140Z,4.54
2023-01-09T05:03:13.367Z,4.55
2023-01-09T05:06:00.212Z,4.51
2023-01-09T05:08:46.966Z,4.55
2023-01-09T05:11:33.770Z,4.51
2023-01-09T05:14:20.617Z,4.56
2023-01-09T05:17:07.382Z,4.54
2023-01-09T05:19:54.264Z,4.55
2023-01-09T05:22:42.212Z,4.54
2023-01-09T05:25:29.022Z,4.55
2023-01-09T05:28:17.926Z,4.56
2023-01-09T05:31:04.926Z,4.56
2023-01-09T05:33:51.944Z,4.54
2023-01-09T05:36:38.941Z,4.56
2023-01-09T05:39:25.832Z,4.53
2023-01-09T05:42:12.632Z,4.51
2023-01-09T05:44:59.401Z,4.49
2023-01-09T05:47:46.239Z,4.51
2023-01-09T05:50:33.126Z,4.56
2023-01-09T05:53:19.907Z,4.55
2023-01-09T05:56:06.872Z,4.54
2023-01-09T05:58:53.623Z,4.55
2023-01-09T06:01:40.429Z,4.56
2023-01-09T06:04:29.828Z,4.55
2023-01-09T06:07:19.982Z,4.53
2023-01-09T06:10:11.387Z,4.54
2023-01-09T06:12:58.145Z,4.53
2023-01-09T06:15:47.560Z,4.53
2023-01-09T06:18:34.312Z,4.51
2023-01-09T06:21:21.138Z,4.52
2023-01-09T06:24:07.993Z,4.52
2023-01-09T06:26:54.758Z,4.51
2023-01-09T06:29:41.530Z,4.53
2023-01-09T06:32:28.287Z,4.52
2023-01-09T06:35:20.181Z,4.53
2023-01-09T06:38:07.003Z,4.52
2023-01-09T06:40:53.823Z,4.53
2023-01-09T06:43:40.677Z,4.54
2023-01-09T06:46:27.584Z,4.54
2023-01-09T06:49:16.246Z,4.52
2023-01-09T06:52:05.743Z,4.51
2023-01-09T06:54:52.553Z,4.53
2023-01-09T06:57:39.394Z,4.52
2023-01-09T07:00:27.175Z,4.55
2023-01-09T07:03:19.651Z,4.54
2023-01-09T07:06:16.841Z,4.55
2023-01-09T07:09:04.934Z,4.55
2023-01-09T07:11:51.731Z,4.48
2023-01-09T07:14:38.510Z,4.48
2023-01-09T07:17:25.577Z,4.46
2023-01-09T07:20:12.469Z,4.54
2023-01-09T07:22:59.227Z,4.54
2023-01-09T07:25:49.351Z,4.56
2023-01-09T07:28:36.144Z,4.54
2023-01-09T07:31:22.934Z,4.56
2023-01-09T07:34:09.962Z,4.56
2023-01-09T07:36:56.800Z,4.55
2023-01-09T07:39:44.045Z,4.54
2023-01-09T07:42:30.856Z,4.55
2023-01-09T07:45:17.700Z,4.53
2023-01-09T07:48:04.878Z,4.48
2023-01-09T07:50:51.706Z,4.49
2023-01-09T07:53:38.485Z,4.53
2023-01-09T07:56:25.272Z,4.56
2023-01-09T07:59:12.102Z,4.56
2023-01-09T08:01:58.960Z,4.57
2023-01-09T08:04:45.861Z,4.59
2023-01-09T08:07:32.709Z,4.57
2023-01-09T08:10:20.041Z,4.61
2023-01-09T08:13:07.014Z,4.62
2023-01-09T08:15:53.860Z,4.64
2023-01-09T08:18:40.656Z,4.59
2023-01-09T08:21:27.454Z,4.61
2023-01-09T08:24:14.236Z,4.66
2023-01-09T08:27:01.026Z,4.66
2023-01-09T08:29:47.834Z,4.68
2023-01-09T08:32:34.593Z,4.66
2023-01-09T08:35:21.600Z,4.67
2023-01-09T08:38:08.381Z,4.69
2023-01-09T08:40:55.168Z,4.72
2023-01-09T08:44:03.952Z,4.72
2023-01-09T08:47:05.597Z,4.71
2023-01-09T08:49:52.393Z,4.73
2023-01-09T08:52:39.369Z,4.72
2023-01-09T08:55:26.561Z,4.74
2023-01-09T08:58:15.773Z,4.74
2023-01-09T09:01:05.020Z,4.75
2023-01-09T09:03:51.782Z,4.73
2023-01-09T09:06:38.619Z,4.72
2023-01-09T09:09:25.799Z,4.69
2023-01-09T09:12:12.578Z,4.65
2023-01-09T09:15:16.503Z,4.66
2023-01-09T09:18:05.162Z,4.68
2023-01-09T09:20:51.913Z,4.69
2023-01-09T09:23:38.676Z,4.70
2023-01-09T09:26:28.450Z,4.68
2023-01-09T09:29:16.483Z,4.70
2023-01-09T09:32:03.425Z,4.71
2023-01-09T09:34:50.219Z,4.71
2023-01-09T09:37:37.555Z,4.72
2023-01-09T09:40:47.477Z,4.72
2023-01-09T09:44:21.491Z,4.74
2023-01-09T09:47:23.578Z,4.78
2023-01-09T09:50:54.997Z,4.79
2023-01-09T09:54:00.860Z,4.82
2023-01-09T09:56:50.937Z,4.81
2023-01-09T09:59:38.796Z,4.82
2023-01-09T10:02:35.661Z,4.88
2023-01-09T10:05:35.612Z,4.89
2023-01-09T10:08:48.261Z,4.93
2023-01-09T10:11:50.316Z,4.97
2023-01-09T10:14:37.266Z,5.00
2023-01-09T10:17:23.914Z,5.07
2023-01-09T10:20:37.410Z,5.14
2023-01-09T10:24:20.995Z,5.21
2023-01-09T10:27:41.053Z,5.27
2023-01-09T10:30:34.258Z,5.32
2023-01-09T10:33:39.875Z,5.39
2023-01-09T10:36:35.429Z,5.43
2023-01-09T10:39:31.497Z,5.49
2023-01-09T10:42:41.559Z,5.54
2023-01-09T10:45:50.573Z,5.60
2023-01-09T10:48:38.768Z,5.63
2023-01-09T10:51:31.695Z,5.67
2023-01-09T10:54:23.601Z,5.70
2023-01-09T10:57:19.668Z,5.74
2023-01-09T11:00:07.325Z,5.76
2023-01-09T11:02:55.065Z,5.79
2023-01-09T11:05:42.125Z,5.80
2023-01-09T11:08:41.816Z,5.85
2023-01-09T11:11:37.377Z,5.87
2023-01-09T11:14:31.429Z,5.87
2023-01-09T11:17:25.613Z,5.88
2023-01-09T11:20:17.189Z,5.91
2023-01-09T11:23:03.992Z,5.95
2023-01-09T11:25:56.424Z,5.97
2023-01-09T11:28:43.226Z,5.99
2023-01-09T11:31:30.383Z,5.99
2023-01-09T11:34:25.542Z,6.00
2023-01-09T11:37:15.892Z,6.02
2023-01-09T11:40:02.853Z,6.04
2023-01-09T11:43:13.397Z,6.03
2023-01-09T11:46:06.370Z,6.09
2023-01-09T11:48:56.874Z,6.08
2023-01-09T11:51:44.265Z,6.10
2023-01-09T11:54:32.755Z,6.10
2023-01-09T11:57:21.727Z,6.13
2023-01-09T12:00:27.864Z,6.14
2023-01-09T12:03:28.766Z,6.13
2023-01-09T12:06:49.578Z,6.16
2023-01-09T12:09:57.137Z,6.17
2023-01-09T12:13:08.593Z,6.17
2023-01-09T12:16:24.223Z,6.17
2023-01-09T12:19:53.184Z,6.20
2023-01-09T12:23:05.220Z,6.18
2023-01-09T12:26:15.236Z,6.21
2023-01-09T12:29:05.586Z,6.21
2023-01-09T12:32:11.997Z,6.18
2023-01-09T12:35:31.295Z,6.22
2023-01-09T12:38:27.366Z,6.22
2023-01-09T12:41:39.281Z,6.25
2023-01-09T12:44:36.047Z,6.24
2023-01-09T12:47:38.929Z,6.24
2023-01-09T12:50:56.112Z,6.25
2023-01-09T12:53:47.112Z,6.26
2023-01-09T12:56:38.839Z,6.25
2023-01-09T12:59:35.910Z,6.27
2023-01-09T13:02:27.567Z,6.29
2023-01-09T13:05:21.603Z,6.30
2023-01-09T13:08:43.953Z,6.29
2023-01-09T13:12:01.609Z,6.23
2023-01-09T13:14:53.300Z,6.32
2023-01-09T13:17:47.877Z,6.32
2023-01-09T13:20:45.846Z,6.33
2023-01-09T13:23:39.092Z,6.32
2023-01-09T13:26:29.597Z,6.34
2023-01-09T13:29:50.494Z,6.35
2023-01-09T13:32:49.320Z,6.35
2023-01-09T13:35:54.047Z,6.35
2023-01-09T13:38:40.864Z,6.35
2023-01-09T13:41:46.906Z,6.35
2023-01-09T13:44:34.648Z,6.36
2023-01-09T13:47:28.633Z,6.35
2023-01-09T13:50:24.928Z,6.37
2023-01-09T13:53:40.303Z,6.38
2023-01-09T13:56:27.085Z,6.38
2023-01-09T13:59:27.950Z,6.39
2023-01-09T14:02:41.289Z,6.39
2023-01-09T14:05:28.009Z,6.41
2023-01-09T14:08:23.082Z,6.41
2023-01-09T14:11:10.412Z,6.41
2023-01-09T14:14:02.408Z,6.42
2023-01-09T14:16:49.349Z,6.47
2023-01-09T14:19:38.581Z,6.51
2023-01-09T14:22:28.228Z,6.56
2023-01-09T14:28:22.568Z,6.65
2023-01-09T14:31:09.848Z,6.69
2023-01-09T14:34:35.712Z,6.70
2023-01-09T14:37:22.586Z,6.74
2023-01-09T14:40:23.160Z,6.77
2023-01-09T14:43:21.729Z,6.79
2023-01-09T14:46:16.524Z,6.81
2023-01-09T14:49:07.513Z,6.84
2023-01-09T14:51:55.509Z,6.84
2023-01-09T14:54:43.603Z,6.88
2023-01-09T14:57:33.874Z,6.89
2023-01-09T15:00:22.179Z,6.90
2023-01-09T15:03:09.785Z,6.92
2023-01-09T15:05:56.841Z,6.91
2023-01-09T15:08:45.966Z,6.95
2023-01-09T15:11:33.282Z,6.96
2023-01-09T15:14:29.258Z,6.94
2023-01-09T15:17:21.033Z,6.98
2023-01-09T15:20:08.582Z,6.97
2023-01-09T15:22:56.297Z,6.99
2023-01-09T15:25:43.099Z,6.98
2023-01-09T15:28:32.202Z,7.00
2023-01-09T15:31:19.405Z,7.01
2023-01-09T15:34:06.162Z,6.99
2023-01-09T15:36:53.615Z,7.00
2023-01-09T15:39:40.403Z,7.00
2023-01-09T15:42:48.975Z,7.01
2023-01-09T15:45:40.495Z,7.02
2023-01-09T15:48:34.842Z,7.02
2023-01-09T15:51:21.995Z,6.99
2023-01-09T15:54:14.330Z,7.01
2023-01-09T15:57:26.198Z,6.99
2023-01-09T16:00:31.196Z,6.98
2023-01-09T16:03:20.361Z,6.98
2023-01-09T16:06:07.984Z,6.97
2023-01-09T16:08:59.718Z,6.93
2023-01-09T16:11:54.340Z,6.90
2023-01-09T16:14:45.596Z,6.88
2023-01-09T16:17:36.607Z,6.87
2023-01-09T16:20:26.904Z,6.84
2023-01-09T16:23:34.401Z,6.83
2023-01-09T16:26:23.825Z,6.82
2023-01-09T16:29:33.613Z,6.80
2023-01-09T16:32:25.612Z,6.77
2023-01-09T16:35:17.662Z,6.75
2023-01-09T16:38:04.503Z,6.74
2023-01-09T16:41:24.302Z,6.72
2023-01-09T16:44:11.336Z,6.69
2023-01-09T16:47:01.230Z,6.67
2023-01-09T16:49:47.985Z,6.67
2023-01-09T16:52:34.748Z,6.64
2023-01-09T16:55:21.514Z,6.62
2023-01-09T16:58:13.976Z,6.61
2023-01-09T17:01:00.791Z,6.58
2023-01-09T17:03:48.240Z,6.56
2023-01-09T17:06:37.226Z,6.54
2023-01-09T17:09:27.345Z,6.55
2023-01-09T17:12:19.940Z,6.53
2023-01-09T17:15:11.480Z,6.45
2023-01-09T17:18:00.870Z,6.44
2023-01-09T17:20:59.497Z,6.41
2023-01-09T17:23:46.999Z,6.43
2023-01-09T17:26:52.926Z,6.38
2023-01-09T17:29:45.583Z,6.36
2023-01-09T17:32:33.022Z,6.35
2023-01-09T17:35:19.868Z,6.35
2023-01-09T17:38:14.826Z,6.36
2023-01-09T17:41:01.629Z,6.33
2023-01-09T17:43:50.554Z,6.30
2023-01-09T17:46:43.168Z,6.35
2023-01-09T17:49:39.822Z,6.30
2023-01-09T17:52:26.794Z,6.31
2023-01-09T17:55:16.385Z,6.29
2023-01-09T17:58:06.568Z,6.30
2023-01-09T18:00:57.605Z,6.23
2023-01-09T18:03:52.046Z,6.29
2023-01-09T18:06:39.064Z,6.19
2023-01-09T18:09:28.556Z,6.25
2023-01-09T18:12:15.461Z,6.16
2023-01-09T18:15:02.729Z,6.15
2023-01-09T18:17:49.496Z,6.23
2023-01-09T18:20:40.601Z,6.14
2023-01-09T18:23:27.457Z,6.13
2023-01-09T18:26:21.205Z,6.13
2023-01-09T18:29:09.336Z,6.15
2023-01-09T18:31:56.290Z,6.09
2023-01-09T18:34:45.753Z,6.09
2023-01-09T18:37:34.943Z,6.16
2023-01-09T18:40:37.120Z,6.15
2023-01-09T18:43:24.224Z,6.05
2023-01-09T18:46:11.898Z,6.05
2023-01-09T18:49:58.322Z,6.08
2023-01-09T18:52:18.757Z,6.05
2023-01-09T18:55:08.332Z,6.04
2023-01-09T18:57:56.111Z,6.06
2023-01-09T19:00:51.781Z,6.03
2023-01-09T19:03:39.396Z,6.05
2023-01-09T19:06:35.451Z,5.96
2023-01-09T19:09:22.429Z,6.01
2023-01-09T19:12:11.593Z,6.03
2023-01-09T19:14:58.374Z,6.03
2023-01-09T19:17:46.883Z,6.04
2023-01-09T19:20:43.517Z,5.98
2023-01-09T19:23:33.930Z,6.02
2023-01-09T19:26:23.979Z,5.97
2023-01-09T19:29:21.025Z,5.93
2023-01-09T19:32:11.245Z,5.93
2023-01-09T19:35:04.209Z,5.92
2023-01-09T19:37:51.177Z,5.99
2023-01-09T19:40:38.081Z,5.97
2023-01-09T19:43:27.855Z,5.90
2023-01-09T19:46:19.857Z,5.90
2023-01-09T19:49:06.801Z,5.97
2023-01-09T19:51:55.861Z,5.93
2023-01-09T19:54:42.732Z,5.94
2023-01-09T19:57:34.133Z,5.92
2023-01-09T20:00:27.205Z,5.89
2023-01-09T20:03:24.427Z,5.89
2023-01-09T20:06:17.481Z,5.88
2023-01-09T20:09:04.790Z,5.84
2023-01-09T20:11:51.612Z,5.82
2023-01-09T20:14:41.652Z,5.80
2023-01-09T20:17:28.639Z,5.84
2023-01-09T20:20:16.295Z,5.82
2023-01-09T20:23:03.123Z,5.80
2023-01-09T20:25:50.796Z,5.82
2023-01-09T20:28:37.600Z,5.79
2023-01-09T20:31:29.003Z,5.80
2023-01-09T20:34:16.158Z,5.75
2023-01-09T20:37:03.048Z,5.76
2023-01-09T20:39:54.846Z,5.80
2023-01-09T20:42:41.649Z,5.76
2023-01-09T20:45:28.537Z,5.76
2023-01-09T20:48:15.417Z,5.79
2023-01-09T20:51:06.927Z,5.79
2023-01-09T20:53:58.246Z,5.71
2023-01-09T20:56:45.197Z,5.74
2023-01-09T20:59:32.036Z,5.72
2023-01-09T21:02:20.034Z,5.68
2023-01-09T21:05:07.287Z,5.70
2023-01-09T21:07:54.149Z,5.69
2023-01-09T21:10:41.077Z,5.69
2023-01-09T21:13:31.183Z,5.66
2023-01-09T21:16:21.417Z,5.67
2023-01-09T21:19:12.536Z,5.74
2023-01-09T21:22:05.141Z,5.66
2023-01-09T21:24:54.836Z,5.65
2023-01-09T21:27:47.439Z,5.64
2023-01-09T21:30:34.753Z,5.64
2023-01-09T21:33:24.657Z,5.62
2023-01-09T21:36:14.485Z,5.65
2023-01-09T21:39:01.303Z,5.63
2023-01-09T21:42:06.796Z,5.64
2023-01-09T21:45:12.317Z,5.64
2023-01-09T21:47:59.421Z,5.67
2023-01-09T21:50:46.323Z,5.60
2023-01-09T21:53:33.160Z,5.68
2023-01-09T21:56:20.003Z,5.62
2023-01-09T21:59:10.398Z,5.60
2023-01-09T22:02:00.541Z,5.59
2023-01-09T22:04:49.164Z,5.62
2023-01-09T22:07:36.067Z,5.64
2023-01-09T22:10:22.932Z,5.60
2023-01-09T22:13:17.737Z,5.61
2023-01-09T22:16:06.675Z,5.58
2023-01-09T22:18:54.507Z,5.63
2023-01-09T22:21:41.574Z,5.63
2023-01-09T22:24:28.402Z,5.61
2023-01-09T22:27:15.448Z,5.62
2023-01-09T22:30:05.029Z,5.61
2023-01-09T22:32:51.837Z,5.61
2023-01-09T22:35:42.302Z,5.59
2023-01-09T22:38:29.227Z,5.52
2023-01-09T22:41:16.025Z,5.55
2023-01-09T22:44:02.808Z,5.62
2023-01-09T22:46:49.682Z,5.61
2023-01-09T22:49:51.857Z,5.60
2023-01-09T22:52:42.448Z,5.59
2023-01-09T22:55:29.203Z,5.59
2023-01-09T22:58:16.032Z,5.60
2023-01-09T23:01:03.482Z,5.59
2023-01-09T23:03:50.383Z,5.58
2023-01-09T23:06:37.149Z,5.58
2023-01-09T23:09:24.617Z,5.59
2023-01-09T23:12:11.435Z,5.57
2023-01-09T23:15:00.946Z,5.58
2023-01-09T23:17:48.236Z,5.57
2023-01-09T23:20:35.164Z,5.51
2023-01-09T23:23:22.868Z,5.51
2023-01-09T23:26:10.141Z,5.54
2023-01-09T23:28:57.218Z,5.59
2023-01-09T23:31:45.442Z,5.53
2023-01-09T23:34:34.741Z,5.59
2023-01-09T23:37:21.929Z,5.51
2023-01-09T23:40:09.826Z,5.57
2023-01-09T23:43:11.773Z,5.58
2023-01-09T23:45:58.600Z,5.55
2023-01-09T23:48:46.598Z,5.50
2023-01-09T23:51:34.453Z,5.49
2023-01-09T23:54:21.336Z,5.54
2023-01-09T23:57:08.242Z,5.57
2023-01-09T23:59:55.105Z,5.49
